createdAt,value
2018-11-14T00:02:03.409Z,19.13
2018-11-14T00:05:12.713Z,20.63
2018-11-14T00:08:22.011Z,17.57
2018-11-14T00:11:31.224Z,18.77
2018-11-14T00:14:40.630Z,17.00
2018-11-14T00:17:50.569Z,16.80
2018-11-14T00:20:59.802Z,17.43
2018-11-14T00:24:08.993Z,17.60
2018-11-14T00:27:18.202Z,16.50
2018-11-14T00:30:27.628Z,17.00
2018-11-14T00:33:36.879Z,16.30
2018-11-14T00:36:45.981Z,17.83
2018-11-14T00:39:55.350Z,17.20
2018-11-14T00:43:04.738Z,17.93
2018-11-14T00:46:14.138Z,16.37
2018-11-14T00:49:23.817Z,16.90
2018-11-14T00:52:34.149Z,19.97
2018-11-14T00:55:44.928Z,15.37
2018-11-14T00:58:54.690Z,17.63
2018-11-14T01:02:04.431Z,18.80
2018-11-14T01:05:14.933Z,19.87
2018-11-14T01:08:26.922Z,17.13
2018-11-14T01:11:41.724Z,21.30
2018-11-14T01:14:52.217Z,17.40
2018-11-14T01:18:02.964Z,18.73
2018-11-14T01:21:12.581Z,21.23
2018-11-14T01:24:21.994Z,23.63
2018-11-14T01:27:31.288Z,21.13
2018-11-14T01:30:40.637Z,19.00
2018-11-14T01:33:49.798Z,23.90
2018-11-14T01:36:59.015Z,24.23
2018-11-14T01:40:11.435Z,23.00
2018-11-14T01:43:20.722Z,21.40
2018-11-14T01:46:29.839Z,28.10
2018-11-14T01:49:38.989Z,23.63
2018-11-14T01:52:48.145Z,31.53
2018-11-14T01:55:57.466Z,24.53
2018-11-14T01:59:06.852Z,26.63
2018-11-14T02:02:16.013Z,23.77
2018-11-14T02:05:25.267Z,28.30
2018-11-14T02:08:34.421Z,26.23
2018-11-14T02:11:43.730Z,30.67
2018-11-14T02:14:53.029Z,24.17
2018-11-14T02:18:02.317Z,27.47
2018-11-14T02:21:11.618Z,32.53
2018-11-14T02:24:20.847Z,31.43
2018-11-14T02:27:30.107Z,32.47
2018-11-14T02:30:39.549Z,32.23
2018-11-14T02:33:48.962Z,31.40
2018-11-14T02:36:58.195Z,27.47
2018-11-14T02:40:09.312Z,28.97
2018-11-14T02:43:18.395Z,30.80
2018-11-14T02:46:27.535Z,31.20
2018-11-14T02:49:36.821Z,27.53
2018-11-14T02:52:46.204Z,29.37
2018-11-14T02:56:15.520Z,29.60
2018-11-14T02:59:24.783Z,28.67
2018-11-14T03:02:33.947Z,27.70
2018-11-14T03:05:43.274Z,30.87
2018-11-14T03:08:52.543Z,32.07
2018-11-14T03:12:01.747Z,34.87
2018-11-14T03:15:13.946Z,31.13
2018-11-14T03:18:23.177Z,29.67
2018-11-14T03:21:32.310Z,30.33
2018-11-14T03:24:41.472Z,28.60
2018-11-14T03:27:50.755Z,29.90
2018-11-14T03:30:59.972Z,32.63
2018-11-14T03:34:09.486Z,33.53
2018-11-14T03:37:18.680Z,36.77
2018-11-14T03:40:27.956Z,35.00
2018-11-14T03:43:37.129Z,37.70
2018-11-14T03:46:46.492Z,36.00
2018-11-14T03:49:55.846Z,33.60
2018-11-14T03:53:05.676Z,36.60
2018-11-14T03:56:14.842Z,37.27
2018-11-14T03:59:24.150Z,32.00
2018-11-14T04:02:33.348Z,34.10
2018-11-14T04:05:42.736Z,31.73
2018-11-14T04:08:51.963Z,31.53
2018-11-14T04:12:01.151Z,38.43
2018-11-14T04:15:11.623Z,42.90
2018-11-14T04:18:20.883Z,39.10
2018-11-14T04:21:30.124Z,34.57
2018-11-14T04:27:54.853Z,43.93
2018-11-14T04:31:03.955Z,37.50
2018-11-14T04:34:13.231Z,39.43
2018-11-14T04:37:22.420Z,42.20
2018-11-14T04:40:31.632Z,50.77
2018-11-14T04:43:41.078Z,47.47
2018-11-14T04:46:50.415Z,45.17
2018-11-14T04:49:59.518Z,49.07
2018-11-14T04:53:08.595Z,59.03
2018-11-14T04:56:18.015Z,56.80
2018-11-14T04:59:27.374Z,55.57
2018-11-14T05:02:36.658Z,54.80
2018-11-14T05:05:45.960Z,52.23
2018-11-14T05:08:55.200Z,64.33
2018-11-14T05:12:04.539Z,60.43
2018-11-14T05:15:15.873Z,60.43
2018-11-14T05:18:25.216Z,56.97
2018-11-14T05:21:35.060Z,56.17
2018-11-14T05:24:45.277Z,67.00
2018-11-14T05:27:54.424Z,58.87
2018-11-14T05:31:04.223Z,61.83
2018-11-14T05:34:13.435Z,57.53
2018-11-14T05:37:24.736Z,62.73
2018-11-14T05:40:37.061Z,52.70
2018-11-14T05:43:46.233Z,58.57
2018-11-14T05:50:13.420Z,62.13
2018-11-14T05:53:22.519Z,63.40
2018-11-14T05:56:31.607Z,59.70
2018-11-14T05:59:41.051Z,66.87
2018-11-14T06:02:50.341Z,62.30
2018-11-14T06:05:59.678Z,66.67
2018-11-14T06:09:12.025Z,65.13
2018-11-14T06:12:21.105Z,56.10
2018-11-14T06:15:30.435Z,61.63
2018-11-14T06:18:39.688Z,59.17
2018-11-14T06:21:49.164Z,66.23
2018-11-14T06:25:08.515Z,70.23
2018-11-14T06:28:17.843Z,67.03
2018-11-14T06:31:27.199Z,74.07
2018-11-14T06:34:36.448Z,69.27
2018-11-14T06:37:45.905Z,74.10
2018-11-14T06:40:55.141Z,62.37
2018-11-14T06:44:04.430Z,66.87
2018-11-14T06:47:13.668Z,65.20
2018-11-14T06:50:23.011Z,67.67
2018-11-14T06:53:32.271Z,63.83
2018-11-14T06:56:41.497Z,68.60
2018-11-14T06:59:51.396Z,63.87
2018-11-14T07:03:01.570Z,59.40
2018-11-14T07:06:10.764Z,57.13
2018-11-14T07:09:19.877Z,64.60
2018-11-14T07:12:29.142Z,56.77
2018-11-14T07:15:39.038Z,54.90
2018-11-14T07:18:48.250Z,49.20
2018-11-14T07:21:57.617Z,40.97
2018-11-14T07:25:07.544Z,41.00
2018-11-14T07:28:17.916Z,43.33
2018-11-14T07:31:27.262Z,39.80
2018-11-14T07:34:36.539Z,40.27
2018-11-14T07:38:00.549Z,33.27
2018-11-14T07:41:11.679Z,37.13
2018-11-14T07:44:21.009Z,40.40
2018-11-14T07:47:30.256Z,38.07
2018-11-14T07:50:39.678Z,29.53
2018-11-14T07:53:49.072Z,30.53
2018-11-14T07:56:58.488Z,27.97
2018-11-14T08:00:11.811Z,28.33
2018-11-14T08:03:21.221Z,28.27
2018-11-14T08:06:30.535Z,30.80
2018-11-14T08:09:39.831Z,26.30
2018-11-14T08:12:49.211Z,24.83
2018-11-14T08:15:59.363Z,23.07
2018-11-14T08:19:08.783Z,29.20
2018-11-14T08:22:18.109Z,29.17
2018-11-14T08:25:27.403Z,24.53
2018-11-14T08:28:36.602Z,26.80
2018-11-14T08:31:48.907Z,26.03
2018-11-14T08:34:58.171Z,22.33
2018-11-14T08:38:07.408Z,22.93
2018-11-14T08:41:16.645Z,24.30
2018-11-14T08:44:25.920Z,24.23
2018-11-14T08:47:35.413Z,24.63
2018-11-14T08:50:44.719Z,27.77
2018-11-14T08:53:53.958Z,29.00
2018-11-14T08:57:03.273Z,27.13
2018-11-14T09:00:22.465Z,28.13
2018-11-14T09:03:31.700Z,24.63
2018-11-14T09:06:41.068Z,27.80
2018-11-14T09:09:50.375Z,23.67
2018-11-14T09:12:59.545Z,26.80
2018-11-14T09:16:08.957Z,23.27
2018-11-14T09:19:18.350Z,26.73
2018-11-14T09:22:27.737Z,24.40
2018-11-14T09:25:36.920Z,23.20
2018-11-14T09:28:46.407Z,24.37
2018-11-14T09:31:55.700Z,28.13
2018-11-14T09:35:05.882Z,30.67
2018-11-14T09:38:15.107Z,24.80
2018-11-14T09:41:24.427Z,26.30
2018-11-14T09:44:34.029Z,32.40
2018-11-14T09:47:43.331Z,27.73
2018-11-14T09:50:52.706Z,35.17
2018-11-14T09:54:01.864Z,31.13
2018-11-14T09:57:11.168Z,29.33
2018-11-14T10:00:23.885Z,28.83
2018-11-14T10:03:33.313Z,26.67
2018-11-14T10:06:42.797Z,29.27
2018-11-14T10:09:52.056Z,29.67
2018-11-14T10:13:01.285Z,31.73
2018-11-14T10:16:10.487Z,25.00
2018-11-14T10:19:19.731Z,26.77
2018-11-14T10:22:29.086Z,24.37
2018-11-14T10:25:38.561Z,26.83
2018-11-14T10:28:47.735Z,23.23
2018-11-14T10:31:57.088Z,30.90
2018-11-14T10:35:07.224Z,22.30
2018-11-14T10:38:16.310Z,27.00
2018-11-14T10:41:25.647Z,26.50
2018-11-14T10:44:34.932Z,24.07
2018-11-14T10:47:44.519Z,29.00
2018-11-14T10:50:53.873Z,28.50
2018-11-14T10:54:03.138Z,25.73
2018-11-14T10:57:12.331Z,25.17
2018-11-14T11:00:27.979Z,32.10
2018-11-14T11:03:42.752Z,31.87
2018-11-14T11:06:57.531Z,31.73
2018-11-14T11:10:12.199Z,27.80
2018-11-14T11:13:26.838Z,28.70
2018-11-14T11:16:40.413Z,36.20
2018-11-14T11:19:49.798Z,28.13
2018-11-14T11:22:59.199Z,26.97
2018-11-14T11:26:08.474Z,23.87
2018-11-14T11:29:17.921Z,23.17
2018-11-14T11:32:27.175Z,30.87
2018-11-14T11:35:36.603Z,25.57
2018-11-14T11:38:45.975Z,23.33
2018-11-14T11:41:55.386Z,29.37
2018-11-14T11:45:05.340Z,22.00
2018-11-14T11:48:14.660Z,21.43
2018-11-14T11:51:23.909Z,22.97
2018-11-14T11:54:33.869Z,20.60
2018-11-14T11:57:42.683Z,23.37
2018-11-14T12:00:52.088Z,22.93
2018-11-14T12:04:01.123Z,28.17
2018-11-14T12:07:10.398Z,23.77
2018-11-14T12:10:19.720Z,27.33
2018-11-14T12:13:29.080Z,23.63
2018-11-14T12:16:38.495Z,31.37
2018-11-14T12:19:47.705Z,24.80
2018-11-14T12:22:57.003Z,25.63
2018-11-14T12:26:06.400Z,26.50
2018-11-14T12:29:15.634Z,26.10
2018-11-14T12:32:24.787Z,19.53
2018-11-14T12:35:34.206Z,24.00
2018-11-14T12:38:44.062Z,25.97
2018-11-14T12:41:53.464Z,21.43
2018-11-14T12:45:02.546Z,24.33
2018-11-14T12:48:11.679Z,25.30
2018-11-14T12:51:21.041Z,19.50
2018-11-14T12:54:30.239Z,25.83
2018-11-14T12:57:39.600Z,24.20
2018-11-14T13:00:49.201Z,25.83
2018-11-14T13:03:58.408Z,29.97
2018-11-14T13:07:07.655Z,31.23
2018-11-14T13:10:18.184Z,17.90
2018-11-14T13:13:31.639Z,23.67
2018-11-14T13:16:40.846Z,28.73
2018-11-14T13:19:50.388Z,19.63
2018-11-14T13:22:59.595Z,23.37
2018-11-14T13:26:09.259Z,22.73
2018-11-14T13:29:18.559Z,19.07
2018-11-14T13:32:27.744Z,24.47
2018-11-14T13:35:37.105Z,26.80
2018-11-14T13:38:46.457Z,23.40
2018-11-14T13:41:55.666Z,25.77
2018-11-14T13:45:06.146Z,22.33
2018-11-14T13:48:15.304Z,26.80
2018-11-14T13:51:24.538Z,26.07
2018-11-14T13:54:33.639Z,25.63
2018-11-14T13:57:44.429Z,22.37
2018-11-14T14:00:53.624Z,26.63
2018-11-14T14:04:03.096Z,26.93
2018-11-14T14:07:12.282Z,24.87
2018-11-14T14:10:21.434Z,28.17
2018-11-14T14:13:30.844Z,26.83
2018-11-14T14:16:41.065Z,33.60
2018-11-14T14:19:50.515Z,27.70
2018-11-14T14:23:00.354Z,26.90
2018-11-14T14:26:09.663Z,28.90
2018-11-14T14:29:18.876Z,28.17
2018-11-14T14:32:28.239Z,30.07
2018-11-14T14:35:37.683Z,34.60
2018-11-14T14:38:46.819Z,37.97
2018-11-14T14:41:55.965Z,32.60
2018-11-14T14:45:06.687Z,30.80
2018-11-14T14:48:17.422Z,31.33
2018-11-14T14:51:28.001Z,26.90
2018-11-14T14:54:37.285Z,30.20
2018-11-14T14:57:47.095Z,32.27
2018-11-14T15:00:56.468Z,31.03
2018-11-14T15:04:05.892Z,29.23
2018-11-14T15:07:15.140Z,26.43
2018-11-14T15:10:24.669Z,29.07
2018-11-14T15:13:33.979Z,37.03
2018-11-14T15:16:43.159Z,29.73
2018-11-14T15:19:52.395Z,35.73
2018-11-14T15:23:01.580Z,37.67
2018-11-14T15:26:10.816Z,38.97
2018-11-14T15:29:20.178Z,30.97
2018-11-14T15:32:29.404Z,44.03
2018-11-14T15:35:38.556Z,41.87
2018-11-14T15:38:47.876Z,41.53
2018-11-14T15:41:57.865Z,38.80
2018-11-14T15:45:09.281Z,39.47
2018-11-14T15:48:18.402Z,52.27
2018-11-14T15:51:27.709Z,48.70
2018-11-14T15:54:36.964Z,53.10
2018-11-14T15:57:46.269Z,42.43
2018-11-14T16:00:55.340Z,47.97
2018-11-14T16:04:05.254Z,41.47
2018-11-14T16:07:14.539Z,49.30
2018-11-14T16:10:24.746Z,46.70
2018-11-14T16:13:34.377Z,47.60
2018-11-14T16:16:43.624Z,52.57
2018-11-14T16:19:53.045Z,52.33
2018-11-14T16:23:02.462Z,48.57
2018-11-14T16:26:11.772Z,48.87
2018-11-14T16:29:21.054Z,47.07
2018-11-14T16:32:30.597Z,48.57
2018-11-14T16:35:39.770Z,49.17
2018-11-14T16:38:48.908Z,60.50
2018-11-14T16:41:58.014Z,54.33
2018-11-14T16:45:07.642Z,51.10
2018-11-14T16:48:16.970Z,49.47
2018-11-14T16:51:26.167Z,60.80
2018-11-14T16:54:35.436Z,49.73
2018-11-14T16:57:45.476Z,52.83
2018-11-14T17:00:54.670Z,46.00
2018-11-14T17:04:03.757Z,47.90
2018-11-14T17:07:12.941Z,52.40
2018-11-14T17:10:22.998Z,53.47
2018-11-14T17:13:32.377Z,51.43
2018-11-14T17:16:41.811Z,57.70
2018-11-14T17:19:51.202Z,57.63
2018-11-14T17:23:00.321Z,48.27
2018-11-14T17:26:09.585Z,58.10
2018-11-14T17:29:18.779Z,56.13
2018-11-14T17:32:28.061Z,57.10
2018-11-14T17:35:37.243Z,57.43
2018-11-14T17:38:46.424Z,61.27
2018-11-14T17:41:55.981Z,56.30
2018-11-14T17:45:06.647Z,61.70
2018-11-14T17:48:16.114Z,59.23
2018-11-14T17:51:25.272Z,62.43
2018-11-14T17:54:34.481Z,59.77
2018-11-14T17:57:43.733Z,60.17
2018-11-14T18:00:52.990Z,63.43
2018-11-14T18:04:02.267Z,57.93
2018-11-14T18:07:11.679Z,63.33
2018-11-14T18:10:22.055Z,63.30
2018-11-14T18:13:31.266Z,61.77
2018-11-14T18:16:40.586Z,62.57
2018-11-14T18:19:49.734Z,66.17
2018-11-14T18:22:59.511Z,65.37
2018-11-14T18:26:08.687Z,67.00
2018-11-14T18:29:18.007Z,73.60
2018-11-14T18:32:27.246Z,79.47
2018-11-14T18:35:36.758Z,73.23
2018-11-14T18:38:45.931Z,73.40
2018-11-14T18:41:55.236Z,70.00
2018-11-14T18:45:05.066Z,70.67
2018-11-14T18:48:14.273Z,68.93
2018-11-14T18:51:23.568Z,80.77
2018-11-14T18:54:32.689Z,74.33
2018-11-14T18:57:42.421Z,75.77
2018-11-14T19:00:51.823Z,72.70
2018-11-14T19:04:00.927Z,85.67
2018-11-14T19:07:10.374Z,78.43
2018-11-14T19:10:21.274Z,76.20
2018-11-14T19:13:30.415Z,82.97
2018-11-14T19:16:39.678Z,77.37
2018-11-14T19:19:48.979Z,80.57
2018-11-14T19:22:59.124Z,84.33
2018-11-14T19:26:08.600Z,78.33
2018-11-14T19:29:18.094Z,87.17
2018-11-14T19:32:27.447Z,90.10
2018-11-14T19:35:36.540Z,95.83
2018-11-14T19:38:45.710Z,81.13
2018-11-14T19:41:55.015Z,75.27
2018-11-14T19:45:04.702Z,79.80
2018-11-14T19:48:13.938Z,77.03
2018-11-14T19:51:23.106Z,77.37
2018-11-14T19:54:32.522Z,73.73
2018-11-14T19:57:42.758Z,72.83
2018-11-14T20:00:52.007Z,71.40
2018-11-14T20:04:01.242Z,70.90
2018-11-14T20:07:10.457Z,81.83
2018-11-14T20:10:21.235Z,67.57
2018-11-14T20:13:30.415Z,74.53
2018-11-14T20:16:39.720Z,73.10
2018-11-14T20:19:48.925Z,72.87
2018-11-14T20:22:58.102Z,73.90
2018-11-14T20:26:07.570Z,65.93
2018-11-14T20:29:16.900Z,69.47
2018-11-14T20:32:26.116Z,71.93
2018-11-14T20:35:35.487Z,72.00
2018-11-14T20:38:44.858Z,75.80
2018-11-14T20:41:53.974Z,72.37
2018-11-14T20:45:03.285Z,66.63
2018-11-14T20:48:12.692Z,70.30
2018-11-14T20:51:21.970Z,70.30
2018-11-14T20:54:31.230Z,67.97
2018-11-14T20:57:41.386Z,69.23
2018-11-14T21:00:50.662Z,68.73
2018-11-14T21:04:00.019Z,70.13
2018-11-14T21:07:09.629Z,68.17
2018-11-14T21:10:20.323Z,64.83
2018-11-14T21:13:29.610Z,59.47
2018-11-14T21:16:39.143Z,67.87
2018-11-14T21:19:48.413Z,69.03
2018-11-14T21:22:57.785Z,57.60
2018-11-14T21:26:07.049Z,62.63
2018-11-14T21:29:16.662Z,61.67
2018-11-14T21:32:26.040Z,64.30
2018-11-14T21:35:36.515Z,63.10
2018-11-14T21:38:45.696Z,64.20
2018-11-14T21:41:54.937Z,62.03
2018-11-14T21:45:04.303Z,65.93
2018-11-14T21:48:14.728Z,59.87
2018-11-14T21:51:23.816Z,66.97
2018-11-14T21:54:33.020Z,63.93
2018-11-14T21:57:42.287Z,57.43
2018-11-14T22:00:52.491Z,56.53
2018-11-14T22:04:01.746Z,63.10
2018-11-14T22:07:11.043Z,61.10
2018-11-14T22:10:21.733Z,61.87
2018-11-14T22:13:30.871Z,57.63
2018-11-14T22:16:40.307Z,72.13
2018-11-14T22:19:49.591Z,62.67
2018-11-14T22:22:58.911Z,57.93
2018-11-14T22:26:08.099Z,54.33
2018-11-14T22:29:17.489Z,57.63
2018-11-14T22:32:27.291Z,57.33
2018-11-14T22:35:36.491Z,63.73
2018-11-14T22:38:45.854Z,55.93
2018-11-14T22:41:55.511Z,52.60
2018-11-14T22:45:06.840Z,50.83
2018-11-14T22:48:16.117Z,50.00
2018-11-14T22:51:25.641Z,49.67
2018-11-14T22:54:34.967Z,54.33
2018-11-14T22:57:45.135Z,57.90
2018-11-14T23:00:54.423Z,52.37
2018-11-14T23:04:04.701Z,49.77
2018-11-14T23:07:14.308Z,45.83
2018-11-14T23:10:24.612Z,46.60
2018-11-14T23:13:33.944Z,51.60
2018-11-14T23:16:43.340Z,49.00
2018-11-14T23:19:52.816Z,41.27
2018-11-14T23:23:02.054Z,45.17
2018-11-14T23:26:11.196Z,48.00
2018-11-14T23:29:20.333Z,48.50
2018-11-14T23:32:29.662Z,42.00
2018-11-14T23:35:38.955Z,49.33
2018-11-14T23:38:48.203Z,40.93
2018-11-14T23:41:57.450Z,40.73
2018-11-14T23:45:08.829Z,43.43
2018-11-14T23:48:17.906Z,44.73
2018-11-14T23:51:27.150Z,37.60
2018-11-14T23:54:36.372Z,43.43
2018-11-14T23:57:45.667Z,38.07
